Time;durP1;ratioP1;P1;durP2;ratioP2;P2;SDS_P1;SDS_P2;PMS_P1;PMS_P2;Temp;Humidity;BMP_temperature;BMP_pressure;BME280_temperature;BME280_humidity;BME280_pressure;Samples;Min_cycle;Max_cycle;Signal;HPM_P1;HPM_P2
2022/10/12 00:01:06;;;;;;;12.25;8.05;;;6.00;99.90;;;;;;4983163;28;20038;-55
2022/10/12 00:03:33;;;;;;;12.57;6.55;;;5.90;99.90;;;;;;4980481;28;20034;-53
2022/10/12 00:06:08;;;;;;;9.60;6.93;;;5.90;99.90;;;;;;4979961;28;20027;-56
2022/10/12 00:08:35;;;;;;;12.70;7.78;;;5.90;99.90;;;;;;4981077;28;20109;-52
2022/10/12 00:11:01;;;;;;;9.52;6.82;;;5.90;99.90;;;;;;4977137;28;20477;-52
2022/10/12 00:13:27;;;;;;;10.68;7.40;;;5.90;99.90;;;;;;4984654;28;20473;-51
2022/10/12 00:15:53;;;;;;;11.00;7.53;;;5.80;99.90;;;;;;4979036;28;20041;-52
2022/10/12 00:18:18;;;;;;;10.38;6.75;;;5.80;99.90;;;;;;4985895;28;20401;-51
2022/10/12 00:20:44;;;;;;;10.35;6.88;;;5.80;99.90;;;;;;4980591;28;20088;-50
2022/10/12 00:23:10;;;;;;;10.48;6.40;;;5.80;99.90;;;;;;4983943;28;20030;-53
2022/10/12 00:25:40;;;;;;;16.45;7.40;;;5.80;99.90;;;;;;4983386;28;20374;-56
2022/10/12 00:28:07;;;;;;;10.07;7.25;;;5.80;99.90;;;;;;4991818;28;20106;-52
2022/10/12 00:30:33;;;;;;;11.18;6.78;;;5.80;99.90;;;;;;4987286;28;20053;-55
2022/10/12 00:32:59;;;;;;;10.05;6.70;;;5.80;99.90;;;;;;4988414;28;20038;-53
2022/10/12 00:35:28;;;;;;;14.95;7.13;;;5.80;99.90;;;;;;4987992;28;20098;-54
2022/10/12 00:37:54;;;;;;;11.23;6.97;;;5.80;99.90;;;;;;4987248;28;20270;-54
2022/10/12 00:40:21;;;;;;;11.73;6.68;;;5.80;99.90;;;;;;4989718;28;20085;-55
2022/10/12 00:42:48;;;;;;;9.95;5.90;;;5.80;99.90;;;;;;4986074;28;20026;-56
2022/10/12 00:45:14;;;;;;;11.70;6.10;;;5.80;99.90;;;;;;4984377;28;20022;-55
2022/10/12 00:47:46;;;;;;;9.23;6.18;;;5.80;99.90;;;;;;4981242;28;20033;-57
2022/10/12 00:50:23;;;;;;;11.30;6.55;;;5.80;99.90;;;;;;4984328;28;20433;-55
2022/10/12 00:53:08;;;;;;;7.43;6.25;;;5.80;99.90;;;;;;4990254;28;20030;-53
2022/10/12 00:55:43;;;;;;;9.27;5.65;;;5.90;99.90;;;;;;4987536;28;20556;-56
2022/10/12 00:58:09;;;;;;;9.00;6.05;;;5.90;99.90;;;;;;4988520;28;20045;-54
2022/10/12 01:00:36;;;;;;;9.35;6.60;;;6.00;99.90;;;;;;4980315;28;20078;-55
2022/10/12 01:03:03;;;;;;;7.00;5.45;;;6.00;99.90;;;;;;4988497;28;20052;-56
2022/10/12 01:05:29;;;;;;;10.80;6.10;;;6.00;99.90;;;;;;4980918;28;20022;-53
2022/10/12 01:07:54;;;;;;;9.63;6.18;;;6.10;99.90;;;;;;4990257;28;20034;-54
2022/10/12 01:10:20;;;;;;;9.45;6.07;;;6.10;99.90;;;;;;4988714;28;20158;-54
2022/10/12 01:12:48;;;;;;;8.23;5.85;;;6.10;99.90;;;;;;4983054;28;20109;-52
2022/10/12 01:15:14;;;;;;;8.30;5.97;;;6.10;99.90;;;;;;5016309;23;20053;-47
2022/10/12 01:17:52;;;;;;;9.15;5.72;;;6.10;99.90;;;;;;5018541;28;20014;-48
2022/10/12 01:20:33;;;;;;;9.02;6.10;;;6.10;99.90;;;;;;5014024;28;20472;-48
2022/10/12 01:23:19;;;;;;;8.88;6.15;;;6.20;99.90;;;;;;5018619;28;20117;-50
2022/10/12 01:26:26;;;;;;;8.40;6.00;;;6.20;99.90;;;;;;5018359;28;20124;-49
2022/10/12 01:29:29;;;;;;;9.77;6.43;;;6.20;99.90;;;;;;5016405;28;20039;-49
2022/10/12 01:32:09;;;;;;;7.78;4.93;;;6.20;99.90;;;;;;5008582;28;20057;-47
2022/10/12 01:34:52;;;;;;;7.30;4.82;;;6.20;99.90;;;;;;5021506;28;20028;-50
2022/10/12 01:37:35;;;;;;;7.43;5.05;;;6.20;99.90;;;;;;5015387;28;20021;-48
2022/10/12 01:40:07;;;;;;;10.60;5.18;;;6.30;99.90;;;;;;5021654;28;20029;-52
2022/10/12 01:42:38;;;;;;;10.23;6.03;;;6.30;99.90;;;;;;5022893;28;20469;-48
2022/10/12 01:45:14;;;;;;;6.80;5.32;;;6.30;99.90;;;;;;5017816;28;20030;-48
2022/10/12 01:47:41;;;;;;;;;;;6.40;99.90;;;;;;5021105;28;20021;-48
2022/10/12 01:50:11;;;;;;;7.80;5.70;;;6.40;99.90;;;;;;5018627;28;19956;-51
2022/10/12 01:52:56;;;;;;;7.53;5.47;;;6.40;99.90;;;;;;5011894;28;20064;-48
2022/10/12 01:55:57;;;;;;;5.80;4.95;;;6.50;99.90;;;;;;5013786;28;20075;-48
2022/10/12 01:58:37;;;;;;;6.80;4.28;;;6.40;99.90;;;;;;4985584;28;20052;-50
2022/10/12 02:01:28;;;;;;;8.60;5.65;;;6.40;99.90;;;;;;5020455;28;20030;-51
2022/10/12 02:04:13;;;;;;;9.43;5.10;;;6.50;99.90;;;;;;5019847;28;20116;-49
2022/10/12 02:06:48;;;;;;;5.70;4.50;;;6.50;99.90;;;;;;5026711;28;20021;-47
2022/10/12 02:09:25;;;;;;;7.00;4.80;;;6.50;99.90;;;;;;5016935;28;20072;-49
2022/10/12 02:11:56;;;;;;;6.63;4.07;;;6.50;99.90;;;;;;5025062;28;20376;-48
2022/10/12 02:14:26;;;;;;;6.15;4.25;;;6.60;99.90;;;;;;5012103;28;20478;-48
2022/10/12 02:17:03;;;;;;;6.38;4.20;;;6.60;99.90;;;;;;5022807;28;20025;-51
2022/10/12 02:19:34;;;;;;;7.72;4.70;;;6.60;99.90;;;;;;5017048;28;20018;-50
2022/10/12 02:22:03;;;;;;;9.52;5.00;;;6.60;99.90;;;;;;5012498;28;20052;-47
2022/10/12 02:24:31;;;;;;;7.32;4.53;;;6.60;99.90;;;;;;5017354;28;20407;-48
2022/10/12 02:26:58;;;;;;;6.78;4.50;;;6.70;99.90;;;;;;5021498;28;20637;-50
2022/10/12 02:29:32;;;;;;;10.35;4.53;;;6.70;99.90;;;;;;5015620;28;20079;-51
2022/10/12 02:32:29;;;;;;;5.57;4.70;;;6.80;99.90;;;;;;5012066;28;20465;-47
2022/10/12 02:35:04;;;;;;;8.35;4.47;;;6.70;99.90;;;;;;5012997;28;20048;-48
2022/10/12 02:37:45;;;;;;;6.80;4.32;;;6.80;99.90;;;;;;5016971;28;20026;-50
2022/10/12 02:40:30;;;;;;;6.43;3.97;;;6.80;99.90;;;;;;5014858;28;20017;-49
2022/10/12 02:43:10;;;;;;;8.75;4.90;;;6.80;99.90;;;;;;5014064;28;20033;-50
2022/10/12 02:45:37;;;;;;;7.15;4.22;;;6.80;99.90;;;;;;5010613;28;20457;-49
2022/10/12 02:48:04;;;;;;;5.22;3.33;;;6.90;99.90;;;;;;5019085;28;20025;-47
2022/10/12 02:50:31;;;;;;;11.75;5.05;;;6.90;99.90;;;;;;5017666;28;20544;-49
2022/10/12 02:52:57;;;;;;;7.88;3.95;;;6.90;99.90;;;;;;5024343;28;20029;-49
2022/10/12 02:55:23;;;;;;;6.82;4.40;;;6.90;99.90;;;;;;5019844;28;20504;-49
2022/10/12 02:57:49;;;;;;;7.78;4.60;;;7.00;99.90;;;;;;5024594;28;20286;-51
2022/10/12 03:00:15;;;;;;;6.00;3.95;;;7.00;99.90;;;;;;5016943;28;20492;-48
2022/10/12 03:02:40;;;;;;;10.25;4.80;;;7.00;99.90;;;;;;5017506;28;20034;-48
2022/10/12 03:05:06;;;;;;;5.15;3.63;;;7.10;99.90;;;;;;5017902;28;20526;-48
2022/10/12 03:07:32;;;;;;;6.40;4.43;;;7.10;99.90;;;;;;5009542;28;20076;-50
2022/10/12 03:09:57;;;;;;;9.05;4.15;;;7.10;99.90;;;;;;5011830;28;20121;-48
2022/10/12 03:12:23;;;;;;;5.70;4.15;;;7.10;99.90;;;;;;5018768;28;20488;-51
2022/10/12 03:14:49;;;;;;;5.05;4.25;;;7.20;99.90;;;;;;5016498;28;20025;-49
2022/10/12 03:17:14;;;;;;;8.13;4.55;;;7.20;99.90;;;;;;5017742;28;20370;-50
2022/10/12 03:19:40;;;;;;;6.82;4.45;;;7.20;99.90;;;;;;5017049;28;20081;-49
2022/10/12 03:22:05;;;;;;;5.53;4.05;;;7.20;99.90;;;;;;5016117;28;20030;-48
2022/10/12 03:24:31;;;;;;;6.57;4.28;;;7.20;99.90;;;;;;5011501;28;20022;-47
2022/10/12 03:26:57;;;;;;;6.40;4.05;;;7.30;99.90;;;;;;5018136;28;20024;-50
2022/10/12 03:29:22;;;;;;;10.00;4.47;;;7.30;99.90;;;;;;5017175;28;20480;-50
2022/10/12 03:31:48;;;;;;;9.25;4.25;;;7.30;99.90;;;;;;5008575;28;20092;-47
2022/10/12 03:34:13;;;;;;;10.60;4.45;;;7.40;99.90;;;;;;5010849;28;20563;-49
2022/10/12 03:36:39;;;;;;;10.02;5.20;;;7.40;99.90;;;;;;5012492;28;20025;-49
2022/10/12 03:39:05;;;;;;;10.02;5.05;;;7.40;99.90;;;;;;5021937;28;20069;-50
2022/10/12 03:41:30;;;;;;;8.35;5.32;;;7.50;99.90;;;;;;5015189;28;20033;-48
2022/10/12 03:43:56;;;;;;;7.68;4.95;;;7.50;99.90;;;;;;5017312;28;20117;-49
2022/10/12 03:46:21;;;;;;;9.65;4.70;;;7.50;99.90;;;;;;5019844;28;20021;-47
2022/10/12 03:48:47;;;;;;;11.15;5.95;;;7.50;99.90;;;;;;5017107;28;20028;-50
2022/10/12 03:51:12;;;;;;;9.88;5.22;;;7.60;99.90;;;;;;5017282;28;20113;-49
2022/10/12 03:53:38;;;;;;;7.78;5.25;;;7.60;99.90;;;;;;5016970;28;20033;-50
2022/10/12 03:56:04;;;;;;;8.73;5.07;;;7.60;99.90;;;;;;5014758;28;20078;-50
2022/10/12 03:58:29;;;;;;;9.98;5.03;;;7.60;99.90;;;;;;5015723;28;20037;-51
2022/10/12 04:00:55;;;;;;;6.78;4.90;;;7.60;99.90;;;;;;5021534;28;20253;-48
2022/10/12 04:03:20;;;;;;;9.82;5.80;;;7.70;99.90;;;;;;5019524;28;20032;-48
2022/10/12 04:05:57;;;;;;;8.23;5.45;;;7.70;99.90;;;;;;5021300;28;20838;-48
2022/10/12 04:08:23;;;;;;;8.82;4.70;;;7.70;99.90;;;;;;5017819;28;20056;-48
2022/10/12 04:10:49;;;;;;;8.20;4.30;;;7.70;99.90;;;;;;5031049;28;20029;-49
2022/10/12 04:13:16;;;;;;;6.32;4.38;;;7.70;99.90;;;;;;5020715;28;20029;-48
2022/10/12 04:15:41;;;;;;;7.68;3.88;;;7.70;99.90;;;;;;5016413;28;20112;-48
2022/10/12 04:18:07;;;;;;;7.72;4.40;;;7.70;99.90;;;;;;5022389;28;20420;-47
2022/10/12 04:20:33;;;;;;;9.10;5.10;;;7.70;99.90;;;;;;5022779;28;20026;-48
2022/10/12 04:22:58;;;;;;;10.32;4.95;;;7.70;99.90;;;;;;5020837;28;20473;-48
2022/10/12 04:25:24;;;;;;;5.30;3.80;;;7.70;99.90;;;;;;5019399;28;20018;-49
2022/10/12 04:27:50;;;;;;;6.80;4.60;;;7.80;99.90;;;;;;5015428;28;20026;-48
2022/10/12 04:30:16;;;;;;;7.55;4.53;;;7.80;99.90;;;;;;5020443;28;20033;-51
2022/10/12 04:32:41;;;;;;;8.63;5.50;;;7.80;99.90;;;;;;5020798;28;20021;-47
2022/10/12 04:35:07;;;;;;;11.02;6.13;;;7.80;99.90;;;;;;5022149;28;20564;-51
2022/10/12 04:37:32;;;;;;;7.15;5.43;;;7.80;99.90;;;;;;5023970;28;20411;-49
2022/10/12 04:39:58;;;;;;;9.93;5.00;;;7.80;99.90;;;;;;5016125;28;20034;-52
2022/10/12 04:42:23;;;;;;;8.32;4.68;;;7.90;99.90;;;;;;5023186;28;20030;-49
2022/10/12 04:44:49;;;;;;;7.65;4.85;;;7.90;99.90;;;;;;5019436;28;20108;-51
2022/10/12 04:47:15;;;;;;;10.55;5.00;;;7.90;99.90;;;;;;5010117;28;20310;-51
2022/10/12 04:49:40;;;;;;;5.68;4.10;;;7.90;99.90;;;;;;5035640;28;20028;-47
2022/10/12 04:52:06;;;;;;;11.45;4.10;;;7.90;99.90;;;;;;5021327;28;20495;-48
2022/10/12 04:54:31;;;;;;;7.55;4.47;;;7.80;99.90;;;;;;5024345;28;20040;-48
2022/10/12 04:56:57;;;;;;;14.63;4.70;;;7.80;99.90;;;;;;5022063;28;20097;-51
2022/10/12 04:59:23;;;;;;;7.97;4.75;;;7.70;99.90;;;;;;5024931;28;20068;-47
2022/10/12 05:01:48;;;;;;;5.25;3.90;;;7.70;99.90;;;;;;5019219;28;20025;-50
2022/10/12 05:04:14;;;;;;;9.32;3.88;;;7.60;99.90;;;;;;5016415;28;20080;-52
2022/10/12 05:06:40;;;;;;;6.68;3.92;;;7.60;99.90;;;;;;5022575;28;20132;-47
2022/10/12 05:09:05;;;;;;;6.18;4.43;;;7.60;99.90;;;;;;5019718;28;20036;-47
2022/10/12 05:11:31;;;;;;;6.32;4.57;;;7.50;99.90;;;;;;5018867;28;20029;-47
2022/10/12 05:13:57;;;;;;;7.00;4.20;;;7.50;99.90;;;;;;5010896;28;20031;-48
2022/10/12 05:16:22;;;;;;;6.55;4.38;;;7.40;99.90;;;;;;5022446;28;20175;-48
2022/10/12 05:18:48;;;;;;;8.95;4.82;;;7.30;99.90;;;;;;5022305;28;20049;-52
2022/10/12 05:21:14;;;;;;;6.75;3.90;;;7.30;99.90;;;;;;5022841;28;20032;-51
2022/10/12 05:23:40;;;;;;;9.13;4.43;;;7.30;99.90;;;;;;5022193;28;20601;-48
2022/10/12 05:26:05;;;;;;;5.00;3.83;;;7.20;99.90;;;;;;5034188;28;20091;-50
2022/10/12 05:28:31;;;;;;;4.13;3.25;;;7.20;99.90;;;;;;5021529;28;20025;-49
2022/10/12 05:30:56;;;;;;;7.72;4.18;;;7.10;99.90;;;;;;5014256;28;20057;-52
2022/10/12 05:33:22;;;;;;;4.93;3.55;;;7.10;99.90;;;;;;5021235;28;20061;-50
2022/10/12 05:35:48;;;;;;;6.97;3.95;;;7.10;99.90;;;;;;5022246;28;20025;-50
2022/10/12 05:38:13;;;;;;;7.97;3.95;;;7.00;99.90;;;;;;5019262;28;20121;-50
2022/10/12 05:40:39;;;;;;;6.85;4.35;;;7.00;99.90;;;;;;5027171;28;20029;-47
2022/10/12 05:43:04;;;;;;;4.93;4.13;;;6.90;99.90;;;;;;5017011;28;20520;-50
2022/10/12 05:45:30;;;;;;;9.90;4.22;;;6.90;99.90;;;;;;5021913;28;20073;-48
2022/10/12 05:47:55;;;;;;;11.05;4.88;;;6.80;99.90;;;;;;5019775;28;20029;-49
2022/10/12 05:50:21;;;;;;;9.13;5.00;;;6.80;99.90;;;;;;5020524;28;20040;-49
2022/10/12 05:52:47;;;;;;;7.78;4.47;;;6.80;99.90;;;;;;5017883;28;20068;-51
2022/10/12 05:55:12;;;;;;;6.22;4.15;;;6.80;99.90;;;;;;5018569;28;20125;-47
2022/10/12 05:57:38;;;;;;;9.32;4.55;;;6.80;99.90;;;;;;5015437;28;20057;-49
2022/10/12 06:00:06;;;;;;;5.95;4.05;;;6.70;99.90;;;;;;5015119;28;20081;-48
2022/10/12 06:02:31;;;;;;;4.70;3.83;;;6.70;99.90;;;;;;5017010;28;20056;-51
2022/10/12 06:04:57;;;;;;;8.35;4.07;;;6.70;99.90;;;;;;5014567;28;20029;-50
2022/10/12 06:07:22;;;;;;;6.32;4.47;;;6.70;99.90;;;;;;5016641;28;20018;-49
2022/10/12 06:09:48;;;;;;;13.38;4.97;;;6.60;99.90;;;;;;5016716;28;20388;-48
2022/10/12 06:12:15;;;;;;;5.43;4.63;;;6.60;99.90;;;;;;5019164;28;20365;-49
2022/10/12 06:14:40;;;;;;;8.40;4.30;;;6.60;99.90;;;;;;5015024;28;20022;-49
2022/10/12 06:17:07;;;;;;;7.28;4.32;;;6.60;99.90;;;;;;5026189;28;20033;-49
2022/10/12 06:19:33;;;;;;;8.27;4.50;;;6.60;99.90;;;;;;5019419;28;20074;-47
2022/10/12 06:21:58;;;;;;;6.95;4.43;;;6.60;99.90;;;;;;5020664;28;20029;-48
2022/10/12 06:24:24;;;;;;;9.73;4.32;;;6.60;99.90;;;;;;5035822;28;20491;-52
2022/10/12 06:26:49;;;;;;;6.80;4.60;;;6.60;99.90;;;;;;5036711;28;20017;-49
2022/10/12 06:29:16;;;;;;;6.47;4.13;;;6.60;99.90;;;;;;5009365;28;20025;-48
2022/10/12 06:31:41;;;;;;;8.80;4.68;;;6.60;99.90;;;;;;5013235;28;20045;-51
2022/10/12 06:34:07;;;;;;;7.32;4.80;;;6.60;99.90;;;;;;5023346;28;20033;-47
2022/10/12 06:36:33;;;;;;;8.13;4.50;;;6.60;99.90;;;;;;5017258;28;20116;-49
2022/10/12 06:38:58;;;;;;;6.28;3.63;;;6.60;99.90;;;;;;5013200;28;20131;-49
2022/10/12 06:41:24;;;;;;;6.05;3.58;;;6.60;99.90;;;;;;5020946;28;20030;-48
2022/10/12 06:43:49;;;;;;;9.93;4.75;;;6.60;99.90;;;;;;5025339;28;20041;-48
2022/10/12 06:46:15;;;;;;;8.50;4.10;;;6.70;99.90;;;;;;5017822;28;20077;-48
2022/10/12 06:48:41;;;;;;;7.20;3.90;;;6.70;99.90;;;;;;5017796;28;20484;-51
2022/10/12 06:51:06;;;;;;;6.97;4.25;;;6.70;99.90;;;;;;5019447;28;20277;-47
2022/10/12 06:53:33;;;;;;;7.05;4.15;;;6.70;99.90;;;;;;5018587;28;20391;-48
2022/10/12 06:56:04;;;;;;;7.35;4.60;;;6.70;99.90;;;;;;5023096;28;20447;-50
2022/10/12 06:58:29;;;;;;;7.55;4.00;;;6.80;99.90;;;;;;5016819;28;20388;-49
2022/10/12 07:00:55;;;;;;;9.05;4.60;;;6.90;99.90;;;;;;5016849;28;20034;-51
2022/10/12 07:03:20;;;;;;;7.07;4.18;;;6.90;99.90;;;;;;5038173;28;20021;-47
2022/10/12 07:05:46;;;;;;;6.68;3.97;;;7.00;99.90;;;;;;5018058;28;20491;-48
2022/10/12 07:08:12;;;;;;;8.27;4.25;;;7.00;99.90;;;;;;5022200;28;20025;-47
2022/10/12 07:10:38;;;;;;;10.95;4.88;;;7.10;99.90;;;;;;5016620;28;20022;-48
2022/10/12 07:13:03;;;;;;;8.50;4.50;;;7.10;99.90;;;;;;5024556;28;20037;-48
2022/10/12 07:15:29;;;;;;;9.13;4.63;;;7.20;99.90;;;;;;5017839;28;20038;-47
2022/10/12 07:17:55;;;;;;;10.32;5.70;;;7.30;99.90;;;;;;5024318;22;20057;-54
2022/10/12 07:20:20;;;;;;;6.65;3.75;;;7.30;99.90;;;;;;4998325;28;20400;-54
2022/10/12 07:22:46;;;;;;;6.32;4.60;;;7.30;99.90;;;;;;4997993;28;20030;-53
2022/10/12 07:25:12;;;;;;;9.30;4.70;;;7.40;99.90;;;;;;5004475;28;20018;-55
2022/10/12 07:27:37;;;;;;;7.43;4.47;;;7.40;99.90;;;;;;4998515;28;20048;-54
2022/10/12 07:30:03;;;;;;;16.13;5.43;;;7.50;99.90;;;;;;5001850;28;20038;-55
2022/10/12 07:32:29;;;;;;;9.80;4.78;;;7.60;99.90;;;;;;5001468;28;20138;-54
2022/10/12 07:34:56;;;;;;;14.15;5.68;;;7.60;99.90;;;;;;4999422;28;20153;-51
2022/10/12 07:37:22;;;;;;;12.95;6.53;;;7.70;99.90;;;;;;5000967;28;20014;-55
2022/10/12 07:39:48;;;;;;;9.32;5.35;;;7.90;99.90;;;;;;5000330;28;20542;-53
2022/10/12 07:42:14;;;;;;;9.65;5.57;;;7.90;99.90;;;;;;4995204;28;20100;-52
2022/10/12 07:44:39;;;;;;;11.65;6.00;;;8.00;99.90;;;;;;5001726;28;20054;-51
2022/10/12 07:47:05;;;;;;;14.32;5.43;;;8.10;99.90;;;;;;4997251;28;20500;-54
2022/10/12 07:49:30;;;;;;;8.98;5.60;;;8.10;99.90;;;;;;4996113;28;20552;-55
2022/10/12 07:51:56;;;;;;;11.88;5.43;;;8.20;99.90;;;;;;4998559;28;20037;-55
2022/10/12 07:54:22;;;;;;;11.27;5.22;;;8.20;99.90;;;;;;4992712;28;20080;-52
2022/10/12 07:56:48;;;;;;;17.02;6.45;;;8.30;99.90;;;;;;4996129;28;20025;-53
2022/10/12 07:59:14;;;;;;;9.52;5.35;;;8.40;99.90;;;;;;4992618;28;20465;-54
2022/10/12 08:01:39;;;;;;;11.82;5.00;;;8.50;99.90;;;;;;5000135;28;20052;-56
2022/10/12 08:04:05;;;;;;;13.70;5.80;;;8.60;99.90;;;;;;5002639;28;20037;-55
2022/10/12 08:06:32;;;;;;;15.48;6.53;;;8.70;99.90;;;;;;4995917;28;20443;-54
2022/10/12 08:09:00;;;;;;;9.60;5.28;;;8.90;99.90;;;;;;4998367;28;20023;-55
2022/10/12 08:11:25;;;;;;;13.93;5.65;;;9.00;99.90;;;;;;4995254;28;20084;-53
2022/10/12 08:13:51;;;;;;;14.77;5.53;;;9.10;99.90;;;;;;4999793;28;20023;-54
2022/10/12 08:16:18;;;;;;;19.10;6.38;;;9.20;99.90;;;;;;5001299;28;20108;-52
2022/10/12 08:18:44;;;;;;;10.40;5.70;;;9.30;99.90;;;;;;5001390;28;20575;-54
2022/10/12 08:21:13;;;;;;;14.65;6.18;;;9.40;99.90;;;;;;5000851;28;20118;-60
2022/10/12 08:23:38;;;;;;;14.55;7.63;;;9.60;99.90;;;;;;5000359;28;20040;-51
2022/10/12 08:26:05;;;;;;;15.65;6.40;;;9.60;99.90;;;;;;4999740;28;20117;-54
2022/10/12 08:28:30;;;;;;;11.23;5.82;;;9.70;99.90;;;;;;5001590;28;20018;-52
2022/10/12 08:30:56;;;;;;;13.68;5.45;;;9.80;99.90;;;;;;4994945;28;20080;-51
2022/10/12 08:33:22;;;;;;;14.60;5.07;;;9.90;99.90;;;;;;5000081;28;20404;-55
2022/10/12 08:35:48;;;;;;;15.55;5.80;;;10.00;99.90;;;;;;4994347;28;20029;-54
2022/10/12 08:38:14;;;;;;;11.85;4.88;;;10.10;99.90;;;;;;5000629;28;20076;-55
2022/10/12 08:40:42;;;;;;;12.98;5.10;;;10.20;99.90;;;;;;4996016;28;20027;-54
2022/10/12 08:43:31;;;;;;;10.20;4.60;;;10.30;99.90;;;;;;5000251;28;20321;-52
2022/10/12 08:45:58;;;;;;;7.75;4.57;;;10.30;99.90;;;;;;5000062;28;20445;-54
2022/10/12 08:48:26;;;;;;;9.32;3.40;;;10.40;99.90;;;;;;4998991;28;20027;-53
2022/10/12 08:51:04;;;;;;;9.90;4.38;;;10.50;99.90;;;;;;4996516;28;20023;-53
2022/10/12 08:53:53;;;;;;;10.15;4.05;;;10.60;99.90;;;;;;5002553;28;20493;-52
2022/10/12 08:56:19;;;;;;;9.15;3.80;;;10.70;99.90;;;;;;4999630;28;20573;-55
2022/10/12 08:58:46;;;;;;;10.32;4.05;;;10.80;99.90;;;;;;5000258;28;20436;-51
2022/10/12 09:01:22;;;;;;;9.10;3.60;;;10.80;99.90;;;;;;5001438;28;20050;-51
2022/10/12 09:04:30;;;;;;;12.10;4.05;;;11.00;99.90;;;;;;4996279;28;20049;-50
2022/10/12 09:07:18;;;;;;;8.43;3.45;;;11.00;99.90;;;;;;4999789;28;20025;-51
2022/10/12 09:09:59;;;;;;;14.35;3.75;;;11.10;99.90;;;;;;5004390;28;20531;-51
2022/10/12 09:13:05;;;;;;;9.75;3.55;;;11.10;99.90;;;;;;5000849;28;20022;-50
2022/10/12 09:15:40;;;;;;;8.80;3.22;;;11.30;99.90;;;;;;4952906;28;20027;-53
2022/10/12 09:18:17;;;;;;;6.05;2.85;;;11.30;99.90;;;;;;4966659;28;20047;-53
2022/10/12 09:20:50;;;;;;;7.68;2.83;;;11.40;99.90;;;;;;4974726;28;20038;-51
2022/10/12 09:23:36;;;;;;;7.38;2.80;;;11.40;99.90;;;;;;4988520;28;20361;-50
2022/10/12 09:26:15;;;;;;;12.23;3.25;;;11.50;99.90;;;;;;4994959;28;20026;-54
2022/10/12 09:28:52;;;;;;;6.53;2.60;;;11.60;99.90;;;;;;4996981;28;20390;-51
2022/10/12 09:31:39;;;;;;;6.93;3.45;;;11.60;99.90;;;;;;4997940;28;20409;-50
2022/10/12 09:34:07;;;;;;;17.27;3.55;;;11.70;99.90;;;;;;5000598;28;20100;-50
2022/10/12 09:36:36;;;;;;;8.57;2.65;;;11.70;99.90;;;;;;5000197;28;20027;-51
2022/10/12 09:39:05;;;;;;;8.05;2.45;;;11.70;99.90;;;;;;5002041;28;20312;-52
2022/10/12 09:41:35;;;;;;;8.60;2.67;;;11.80;99.90;;;;;;5002704;28;20057;-53
2022/10/12 09:44:03;;;;;;;9.43;2.97;;;11.80;99.90;;;;;;5007771;28;20061;-50
2022/10/12 09:46:38;;;;;;;7.38;2.75;;;11.90;99.90;;;;;;4999803;28;20030;-55
2022/10/12 09:49:04;;;;;;;6.88;1.77;;;11.90;99.90;;;;;;5002199;28;20497;-54
2022/10/12 09:51:31;;;;;;;10.23;2.50;;;12.00;99.90;;;;;;5003171;28;20018;-53
2022/10/12 09:54:02;;;;;;;10.07;2.67;;;12.10;99.90;;;;;;4993783;28;20558;-52
2022/10/12 09:56:35;;;;;;;6.72;1.92;;;12.10;99.90;;;;;;5004436;28;20105;-53
2022/10/12 09:59:04;;;;;;;7.72;2.30;;;12.10;99.90;;;;;;5001192;28;20026;-51
2022/10/12 10:01:32;;;;;;;7.38;2.28;;;12.20;99.90;;;;;;4997735;28;20475;-51
2022/10/12 10:04:21;;;;;;;7.43;2.58;;;12.20;99.90;;;;;;5001952;28;20568;-52
2022/10/12 10:06:47;;;;;;;7.55;1.85;;;12.40;99.90;;;;;;5003195;28;20421;-53
2022/10/12 10:09:34;;;;;;;9.70;2.25;;;12.40;99.90;;;;;;5002787;28;20029;-53
2022/10/12 10:12:22;;;;;;;4.05;1.70;;;12.50;99.90;;;;;;5000612;28;20038;-51
2022/10/12 10:14:50;;;;;;;8.77;2.20;;;12.50;99.90;;;;;;5002459;28;20029;-53
2022/10/12 10:17:23;;;;;;;6.20;1.50;;;12.50;99.90;;;;;;4999870;28;20443;-53
2022/10/12 10:19:50;;;;;;;7.53;2.00;;;12.60;99.90;;;;;;4997629;28;20022;-56
2022/10/12 10:22:16;;;;;;;5.55;2.03;;;12.60;99.90;;;;;;5002500;28;20022;-50
2022/10/12 10:24:42;;;;;;;5.70;1.42;;;12.60;99.90;;;;;;5002422;28;20079;-52
2022/10/12 10:27:36;;;;;;;9.00;2.13;;;12.60;99.90;;;;;;4998349;28;20022;-55
2022/10/12 10:30:27;;;;;;;6.13;2.08;;;12.70;99.90;;;;;;5001605;28;20022;-54
2022/10/12 10:33:14;;;;;;;7.38;1.73;;;12.80;99.90;;;;;;4997676;28;20050;-52
2022/10/12 10:35:40;;;;;;;7.93;1.98;;;12.80;99.90;;;;;;5002682;28;20029;-55
2022/10/12 10:38:14;;;;;;;4.20;1.40;;;12.80;99.90;;;;;;5000221;28;20030;-55
2022/10/12 10:40:40;;;;;;;7.93;2.15;;;12.90;99.90;;;;;;5002510;28;20097;-55
2022/10/12 10:43:19;;;;;;;6.53;1.45;;;13.00;99.90;;;;;;5001521;28;20110;-55
2022/10/12 10:45:54;;;;;;;9.70;1.70;;;13.00;99.90;;;;;;5001077;28;20025;-56
2022/10/12 10:48:23;;;;;;;7.28;2.45;;;13.00;99.90;;;;;;4996929;28;20026;-56
2022/10/12 10:50:59;;;;;;;12.88;2.40;;;13.00;99.90;;;;;;5004884;28;20076;-56
2022/10/12 10:53:28;;;;;;;11.15;2.03;;;13.10;99.90;;;;;;4998717;28;20536;-53
2022/10/12 10:56:02;;;;;;;5.00;1.15;;;13.10;99.90;;;;;;5005389;28;20053;-57
2022/10/12 10:58:31;;;;;;;5.93;1.65;;;13.10;99.90;;;;;;4992126;28;20045;-55
2022/10/12 11:01:02;;;;;;;6.10;1.30;;;13.20;99.90;;;;;;5006026;28;20452;-57
2022/10/12 11:03:38;;;;;;;4.88;1.83;;;13.20;99.90;;;;;;4992322;28;20042;-51
2022/10/12 11:06:07;;;;;;;;;;;13.30;99.90;;;;;;5001503;28;20380;-53
2022/10/12 11:08:35;;;;;;;6.95;1.45;;;13.30;99.90;;;;;;5001741;28;19945;-54
2022/10/12 11:11:24;;;;;;;5.72;2.05;;;13.30;99.90;;;;;;5000001;28;20221;-52
2022/10/12 11:14:04;;;;;;;3.83;1.58;;;13.30;99.90;;;;;;4996488;28;20497;-53
2022/10/12 11:16:35;;;;;;;6.05;1.58;;;13.20;99.90;;;;;;5001797;28;20032;-55
2022/10/12 11:19:28;;;;;;;4.65;1.52;;;13.30;99.90;;;;;;4998002;28;20038;-55
2022/10/12 11:21:56;;;;;;;5.80;1.65;;;13.40;99.90;;;;;;5000413;28;20022;-53
2022/10/12 11:24:26;;;;;;;3.30;1.30;;;13.40;99.90;;;;;;5000712;28;20025;-52
2022/10/12 11:26:59;;;;;;;5.78;1.33;;;13.40;99.90;;;;;;5000541;28;20506;-54
2022/10/12 11:29:26;;;;;;;10.18;2.03;;;13.50;99.90;;;;;;4999602;28;20209;-57
2022/10/12 11:32:12;;;;;;;3.80;1.45;;;13.50;99.90;;;;;;4998314;28;20069;-55
2022/10/12 11:34:51;;;;;;;3.88;1.48;;;13.50;99.90;;;;;;4995855;28;20465;-54
2022/10/12 11:37:23;;;;;;;6.47;1.13;;;13.50;99.90;;;;;;5008937;28;20033;-52
2022/10/12 11:39:52;;;;;;;5.53;1.17;;;13.50;99.90;;;;;;5000081;28;20084;-52
2022/10/12 11:42:32;;;;;;;2.92;1.30;;;13.50;99.90;;;;;;4998355;28;20026;-54
2022/10/12 11:45:00;;;;;;;6.28;1.48;;;13.50;99.90;;;;;;5000779;28;20105;-54
2022/10/12 11:47:29;;;;;;;5.45;1.55;;;13.50;99.90;;;;;;5000472;28;20029;-52
2022/10/12 11:50:26;;;;;;;4.03;1.13;;;13.50;99.90;;;;;;4999153;28;20034;-53
2022/10/12 11:52:54;;;;;;;7.25;1.35;;;13.60;99.90;;;;;;4992884;28;20601;-53
2022/10/12 11:55:45;;;;;;;9.45;2.05;;;13.60;99.90;;;;;;4999434;28;20061;-57
2022/10/12 11:58:34;;;;;;;6.57;1.52;;;13.70;99.90;;;;;;4998033;28;20474;-52
2022/10/12 12:01:31;;;;;;;7.18;1.60;;;13.70;99.90;;;;;;5005295;28;20523;-54
2022/10/12 12:04:19;;;;;;;5.68;1.77;;;13.70;99.90;;;;;;4986200;28;20564;-57
2022/10/12 12:06:58;;;;;;;9.55;1.90;;;13.70;99.90;;;;;;4997618;28;20052;-52
2022/10/12 12:09:34;;;;;;;7.97;2.10;;;13.80;99.90;;;;;;4988378;28;20049;-56
2022/10/12 12:12:11;;;;;;;2.55;1.27;;;13.80;99.90;;;;;;4992924;28;20552;-55
2022/10/12 12:14:48;;;;;;;6.20;1.58;;;13.80;99.90;;;;;;5001178;28;20567;-55
2022/10/12 12:17:17;;;;;;;4.75;1.70;;;13.80;99.90;;;;;;4992053;28;20099;-52
2022/10/12 12:19:44;;;;;;;7.88;1.42;;;13.90;99.90;;;;;;5002150;28;20527;-54
2022/10/12 12:22:11;;;;;;;7.60;2.35;;;13.90;99.90;;;;;;4990398;28;20415;-55
2022/10/12 12:24:38;;;;;;;3.35;0.98;;;13.90;99.90;;;;;;5005777;28;20022;-55
2022/10/12 12:27:18;;;;;;;6.90;2.05;;;13.90;99.90;;;;;;4995623;28;20535;-54
2022/10/12 12:29:51;;;;;;;4.82;1.05;;;13.90;99.90;;;;;;5002979;28;20050;-51
2022/10/12 12:32:16;;;;;;;5.50;1.75;;;13.90;99.90;;;;;;4988032;28;20419;-56
2022/10/12 12:34:56;;;;;;;5.55;1.35;;;13.90;99.90;;;;;;5003860;28;20030;-55
2022/10/12 12:37:27;;;;;;;3.35;1.58;;;13.90;99.90;;;;;;4991012;28;20454;-54
2022/10/12 12:39:56;;;;;;;4.90;1.45;;;13.90;99.90;;;;;;5003676;28;20034;-54
2022/10/12 12:42:31;;;;;;;2.63;1.90;;;13.90;99.90;;;;;;5004049;28;20515;-52
2022/10/12 12:45:32;;;;;;;7.75;1.98;;;14.00;99.90;;;;;;5003582;28;20022;-55
2022/10/12 12:47:57;;;;;;;7.63;1.30;;;14.00;99.90;;;;;;5003459;28;20037;-58
2022/10/12 12:50:34;;;;;;;5.38;1.55;;;14.00;99.90;;;;;;5003262;28;20558;-52
2022/10/12 12:53:20;;;;;;;4.85;1.55;;;14.00;99.90;;;;;;5002724;28;20021;-56
2022/10/12 12:56:03;;;;;;;10.57;1.90;;;13.90;99.90;;;;;;5004986;28;20365;-53
2022/10/12 12:59:00;;;;;;;6.38;2.10;;;13.90;99.90;;;;;;5000515;28;20037;-55
2022/10/12 13:01:31;;;;;;;2.97;1.40;;;13.90;99.90;;;;;;4997011;28;20026;-52
2022/10/12 13:04:24;;;;;;;3.60;1.17;;;13.90;99.90;;;;;;5001503;28;20026;-55
2022/10/12 13:07:29;;;;;;;3.70;1.40;;;13.90;99.90;;;;;;4997023;28;20025;-56
2022/10/12 13:10:16;;;;;;;3.55;1.35;;;13.90;99.90;;;;;;5000010;28;20066;-53
2022/10/12 13:13:06;;;;;;;4.65;1.73;;;14.00;99.90;;;;;;4998589;28;20026;-56